BOX601 VHHH-KLAX
Flight info
| Callsign | BOX601 |
|---|---|
| Flight time | N/A |
| Altitude | 31000 |
| Route | DALOL V631 ENVAR M750 MUKEP Y891 OVSUN/N0493F320 Y893 IGMIS/N0494F310 Y57 POROT/N0491F330 Y809 IDLAN Y812 ADNAP OTR5 KALNA DCT 41N160E 41N170E 41N180E 39N170W/N0474F350 36N160W 34N150W 33N145W 33N140W DCT CUNDU/N0477F370 DCT ADUMM DCT AUDIA DCT SNAXX RYDRR2 |
| Aircraft | B77L/H-SDE1E2E3FGHIJ2J3J4J5M1RWXY/LB1D1 |
Departure
| Time | N/A |
|---|---|
| Airport | Hong Kong International Airport (VHHH) |
Arrival
| Time | 2026-05-04 04:15 |
|---|---|
| Airport | Los Angeles International Airport (KLAX) |
| Time | Latitude | Longitude | Altitude | Speed | Heading |
|---|---|---|---|---|---|
| 2026-05-04 04:15 | 33.93322 | -118.41117 | 140 ft | 0 kts | 91° |
| 2026-05-04 04:19 | 33.93322 | -118.41104 | 140 ft | 4 kts | 84° |
| 2026-05-04 04:19 | 33.93328 | -118.41060 | 140 ft | 6 kts | 81° |
| 2026-05-04 04:20 | 33.93335 | -118.41004 | 140 ft | 8 kts | 81° |
| 2026-05-04 04:20 | 33.93343 | -118.40936 | 140 ft | 9 kts | 81° |
| 2026-05-04 04:20 | 33.93353 | -118.40854 | 140 ft | 11 kts | 81° |
| 2026-05-04 04:20 | 33.93365 | -118.40759 | 140 ft | 12 kts | 81° |
| 2026-05-04 04:21 | 33.93379 | -118.40650 | 140 ft | 14 kts | 81° |
| 2026-05-04 04:21 | 33.93394 | -118.40527 | 140 ft | 16 kts | 81° |
| 2026-05-04 04:21 | 33.93410 | -118.40392 | 140 ft | 17 kts | 85° |
| 2026-05-04 04:21 | 33.93419 | -118.40243 | 140 ft | 19 kts | 86° |
| 2026-05-04 04:22 | 33.93429 | -118.40081 | 140 ft | 20 kts | 84° |
| 2026-05-04 04:22 | 33.93449 | -118.39909 | 140 ft | 21 kts | 83° |
| 2026-05-04 04:22 | 33.93467 | -118.39725 | 140 ft | 23 kts | 83° |
| 2026-05-04 04:22 | 33.93486 | -118.39529 | 140 ft | 24 kts | 84° |
| 2026-05-04 04:23 | 33.93503 | -118.39323 | 140 ft | 25 kts | 84° |
| 2026-05-04 04:23 | 33.93525 | -118.39106 | 140 ft | 27 kts | 80° |
| 2026-05-04 04:23 | 33.93549 | -118.38880 | 140 ft | 28 kts | 83° |
| 2026-05-04 04:23 | 33.93576 | -118.38646 | 140 ft | 29 kts | 83° |
| 2026-05-04 04:24 | 33.93602 | -118.38406 | 140 ft | 29 kts | 82° |
| 2026-05-04 04:24 | 33.93620 | -118.38213 | 140 ft | 17 kts | 94° |
| 2026-05-04 04:24 | 33.93590 | -118.38150 | 140 ft | 7 kts | 157° |
| 2026-05-04 04:24 | 33.93546 | -118.38142 | 140 ft | 0 kts | 176° |
| 2026-05-04 04:25 | 33.93542 | -118.38141 | 140 ft | 1 kts | 176° |
| 2026-05-04 04:25 | 33.93525 | -118.38140 | 140 ft | 3 kts | 176° |
| 2026-05-04 04:25 | 33.93498 | -118.38138 | 140 ft | 5 kts | 176° |
| 2026-05-04 04:25 | 33.93480 | -118.38137 | 140 ft | 0 kts | 176° |
| 2026-05-04 04:26 | 33.93473 | -118.38136 | 140 ft | 2 kts | 176° |
| 2026-05-04 04:26 | 33.93453 | -118.38135 | 140 ft | 4 kts | 176° |
| 2026-05-04 04:26 | 33.93425 | -118.38127 | 140 ft | 4 kts | 142° |
| 2026-05-04 04:26 | 33.93411 | -118.38090 | 140 ft | 6 kts | 113° |
| 2026-05-04 04:27 | 33.93400 | -118.38070 | 140 ft | 0 kts | 132° |